createdAt,value
2022-12-20T00:01:48.727Z,2.33
2022-12-20T00:04:15.235Z,2.73
2022-12-20T00:06:42.031Z,5.35
2022-12-20T00:09:12.398Z,2.15
2022-12-20T00:11:41.254Z,1.10
2022-12-20T00:14:09.777Z,4.22
2022-12-20T00:16:37.752Z,3.63
2022-12-20T00:19:06.542Z,3.90
2022-12-20T00:21:36.416Z,6.40
2022-12-20T00:24:03.294Z,6.70
2022-12-20T00:26:32.904Z,2.40
2022-12-20T00:29:01.257Z,2.63
2022-12-20T00:31:30.200Z,3.08
2022-12-20T00:33:58.169Z,1.58
2022-12-20T00:36:27.259Z,3.20
2022-12-20T00:38:55.845Z,3.22
2022-12-20T00:41:29.882Z,2.75
2022-12-20T00:43:57.479Z,2.53
2022-12-20T00:46:27.227Z,3.50
2022-12-20T00:48:55.812Z,5.00
2022-12-20T00:51:28.139Z,2.00
2022-12-20T00:53:55.131Z,2.97
2022-12-20T00:56:22.071Z,3.08
2022-12-20T00:58:51.518Z,2.63
2022-12-20T01:01:21.740Z,2.20
2022-12-20T01:03:49.627Z,2.15
2022-12-20T01:06:16.868Z,1.88
2022-12-20T01:08:43.996Z,2.40
2022-12-20T01:11:17.564Z,3.55
2022-12-20T01:13:47.706Z,3.28
2022-12-20T01:16:24.123Z,3.10
2022-12-20T01:18:53.822Z,10.98
2022-12-20T01:21:22.332Z,2.47
2022-12-20T01:23:49.895Z,2.58
2022-12-20T01:26:18.979Z,2.42
2022-12-20T01:28:47.632Z,1.58
2022-12-20T01:31:17.351Z,2.38
2022-12-20T01:33:45.328Z,2.20
2022-12-20T01:36:17.367Z,2.42
2022-12-20T01:38:44.190Z,2.97
2022-12-20T01:41:17.502Z,7.25
2022-12-20T01:43:46.982Z,3.50
2022-12-20T01:46:14.454Z,1.70
2022-12-20T01:48:47.223Z,1.83
2022-12-20T01:51:16.881Z,2.80
2022-12-20T01:53:43.774Z,5.20
2022-12-20T01:56:11.393Z,3.30
2022-12-20T01:58:39.878Z,4.60
2022-12-20T02:01:09.579Z,5.18
2022-12-20T02:03:37.102Z,1.80
2022-12-20T02:06:18.775Z,5.75
2022-12-20T02:08:48.421Z,2.65
2022-12-20T02:11:25.624Z,2.45
2022-12-20T02:14:28.853Z,4.18
2022-12-20T02:17:11.959Z,2.17
2022-12-20T02:19:41.438Z,4.55
2022-12-20T02:22:52.566Z,5.15
2022-12-20T02:26:16.875Z,6.07
2022-12-20T02:29:07.346Z,1.25
2022-12-20T02:31:40.298Z,3.03
2022-12-20T02:34:11.358Z,5.82
2022-12-20T02:36:38.580Z,0.95
2022-12-20T02:39:05.487Z,2.08
2022-12-20T02:41:43.605Z,2.15
2022-12-20T02:47:00.856Z,2.42
2022-12-20T02:49:35.297Z,1.75
2022-12-20T02:52:03.388Z,4.40
2022-12-20T02:54:33.400Z,2.42
2022-12-20T02:57:11.706Z,1.70
2022-12-20T03:00:07.608Z,3.42
2022-12-20T03:02:55.969Z,1.50
2022-12-20T03:05:27.812Z,2.35
2022-12-20T03:07:57.079Z,2.38
2022-12-20T03:10:25.864Z,6.53
2022-12-20T03:12:52.739Z,4.95
2022-12-20T03:15:20.271Z,3.33
2022-12-20T03:17:47.298Z,1.70
2022-12-20T03:20:16.220Z,3.47
2022-12-20T03:22:44.152Z,4.05
2022-12-20T03:25:10.698Z,1.30
2022-12-20T03:27:37.283Z,3.22
2022-12-20T03:30:05.116Z,2.83
2022-12-20T03:32:32.313Z,3.85
2022-12-20T03:34:59.231Z,1.45
2022-12-20T03:37:26.478Z,5.20
2022-12-20T03:39:53.269Z,6.95
2022-12-20T03:42:20.115Z,2.42
2022-12-20T03:44:47.714Z,2.90
2022-12-20T03:47:17.615Z,4.07
2022-12-20T03:49:45.613Z,4.18
2022-12-20T03:52:15.214Z,1.70
2022-12-20T03:54:44.222Z,1.95
2022-12-20T03:57:12.615Z,1.58
2022-12-20T03:59:39.436Z,0.70
2022-12-20T04:02:06.441Z,3.08
2022-12-20T04:04:34.237Z,3.40
2022-12-20T04:07:00.844Z,2.10
2022-12-20T04:09:30.667Z,1.75
2022-12-20T04:11:57.520Z,5.95
2022-12-20T04:14:24.561Z,2.17
2022-12-20T04:16:51.136Z,3.38
2022-12-20T04:19:17.861Z,4.38
2022-12-20T04:21:46.741Z,1.77
2022-12-20T04:24:13.686Z,4.35
2022-12-20T04:26:41.635Z,5.43
2022-12-20T04:29:08.947Z,2.30
2022-12-20T04:31:36.541Z,9.10
2022-12-20T04:34:03.708Z,3.17
2022-12-20T04:36:30.605Z,2.97
2022-12-20T04:38:57.914Z,3.78
2022-12-20T04:41:27.486Z,1.67
2022-12-20T04:43:59.880Z,3.38
2022-12-20T04:46:28.415Z,3.47
2022-12-20T04:48:58.874Z,3.17
2022-12-20T04:51:27.251Z,7.75
2022-12-20T04:53:56.527Z,1.70
2022-12-20T04:56:28.935Z,2.22
2022-12-20T04:58:57.818Z,5.13
2022-12-20T05:01:25.157Z,2.95
2022-12-20T05:03:54.002Z,4.93
2022-12-20T05:06:20.826Z,9.63
2022-12-20T05:08:50.037Z,2.40
2022-12-20T05:11:16.679Z,4.65
2022-12-20T05:13:43.343Z,2.63
2022-12-20T05:16:10.134Z,2.75
2022-12-20T05:18:36.711Z,2.00
2022-12-20T05:21:22.431Z,2.53
2022-12-20T05:24:08.127Z,2.13
2022-12-20T05:26:37.913Z,4.40
2022-12-20T05:29:06.260Z,2.85
2022-12-20T05:34:03.427Z,3.00
2022-12-20T05:36:30.193Z,3.13
2022-12-20T05:39:03.971Z,1.75
2022-12-20T05:41:31.713Z,3.42
2022-12-20T05:43:58.886Z,6.20
2022-12-20T05:46:28.206Z,2.95
2022-12-20T05:48:54.830Z,3.08
2022-12-20T05:51:21.655Z,3.45
2022-12-20T05:53:48.266Z,3.47
2022-12-20T05:56:15.473Z,5.72
2022-12-20T05:58:42.083Z,6.22
2022-12-20T06:01:10.511Z,5.13
2022-12-20T06:03:39.070Z,4.68
2022-12-20T06:06:13.608Z,1.85
2022-12-20T06:08:43.687Z,3.25
2022-12-20T06:11:10.298Z,1.33
2022-12-20T06:13:38.157Z,1.45
2022-12-20T06:16:05.296Z,0.85
2022-12-20T06:18:31.906Z,2.47
2022-12-20T06:20:59.722Z,1.38
2022-12-20T06:23:29.019Z,2.67
2022-12-20T06:25:56.112Z,2.13
2022-12-20T06:28:23.054Z,3.10
2022-12-20T06:30:54.251Z,1.33
2022-12-20T06:33:21.331Z,2.20
2022-12-20T06:35:50.610Z,1.20
2022-12-20T06:38:19.893Z,1.27
2022-12-20T06:40:46.500Z,1.80
2022-12-20T06:43:13.167Z,4.25
2022-12-20T06:45:42.134Z,3.33
2022-12-20T06:48:10.035Z,2.60
2022-12-20T06:50:39.738Z,1.67
2022-12-20T06:53:06.840Z,2.70
2022-12-20T06:55:33.394Z,1.48
2022-12-20T06:58:00.072Z,2.22
2022-12-20T07:00:27.827Z,2.97
2022-12-20T07:02:55.068Z,1.02
2022-12-20T07:05:22.049Z,2.40
2022-12-20T07:07:51.950Z,3.10
2022-12-20T07:10:19.735Z,3.25
2022-12-20T07:12:48.335Z,1.95
2022-12-20T07:15:16.023Z,1.63
2022-12-20T07:17:42.534Z,5.47
2022-12-20T07:20:13.615Z,3.67
2022-12-20T07:22:41.258Z,7.55
2022-12-20T07:25:08.192Z,2.88
2022-12-20T07:27:36.018Z,3.28
2022-12-20T07:30:05.175Z,1.85
2022-12-20T07:32:32.239Z,2.63
2022-12-20T07:35:01.520Z,4.07
2022-12-20T07:37:31.368Z,2.75
2022-12-20T07:39:58.730Z,8.35
2022-12-20T07:42:36.067Z,1.10
2022-12-20T07:45:06.187Z,2.70
2022-12-20T07:47:33.663Z,1.15
2022-12-20T07:50:00.781Z,2.08
2022-12-20T07:52:29.425Z,1.58
2022-12-20T07:55:01.145Z,1.75
2022-12-20T07:57:32.359Z,2.28
2022-12-20T08:00:01.787Z,1.33
2022-12-20T08:02:36.125Z,5.00
2022-12-20T08:05:05.692Z,5.45
2022-12-20T08:07:33.753Z,0.95
2022-12-20T08:12:29.950Z,1.65
2022-12-20T08:14:58.415Z,1.75
2022-12-20T08:17:25.324Z,1.33
2022-12-20T08:19:52.427Z,2.10
2022-12-20T08:22:19.654Z,3.50
2022-12-20T08:24:47.395Z,1.98
2022-12-20T08:27:15.317Z,2.28
2022-12-20T08:29:41.958Z,4.43
2022-12-20T08:32:08.795Z,3.65
2022-12-20T08:34:38.411Z,1.35
2022-12-20T08:37:12.383Z,2.58
2022-12-20T08:39:41.888Z,1.98
2022-12-20T08:42:12.310Z,1.58
2022-12-20T08:44:40.746Z,1.77
2022-12-20T08:47:07.837Z,2.05
2022-12-20T08:49:34.435Z,1.88
2022-12-20T08:52:01.154Z,2.13
2022-12-20T08:54:28.178Z,1.73
2022-12-20T08:56:55.181Z,2.83
2022-12-20T08:59:22.156Z,1.50
2022-12-20T09:01:49.153Z,1.40
2022-12-20T09:04:18.451Z,2.20
2022-12-20T09:06:46.168Z,2.65
2022-12-20T09:09:12.873Z,1.73
2022-12-20T09:11:41.024Z,3.60
2022-12-20T09:16:35.373Z,1.30
2022-12-20T09:19:06.773Z,2.33
2022-12-20T09:21:34.594Z,2.55
2022-12-20T09:24:01.294Z,2.50
2022-12-20T09:26:28.216Z,2.65
2022-12-20T09:29:01.698Z,2.38
2022-12-20T09:31:28.966Z,5.47
2022-12-20T09:33:59.080Z,3.47
2022-12-20T09:36:27.483Z,2.80
2022-12-20T09:38:57.324Z,10.13
2022-12-20T09:41:33.297Z,3.00
2022-12-20T09:44:05.551Z,1.73
2022-12-20T09:46:33.367Z,4.20
2022-12-20T09:49:00.444Z,2.33
2022-12-20T09:52:06.210Z,2.67
2022-12-20T09:54:47.262Z,2.03
2022-12-20T09:57:51.214Z,0.93
2022-12-20T10:00:19.961Z,1.35
2022-12-20T10:03:04.078Z,2.50
2022-12-20T10:05:56.024Z,2.40
2022-12-20T10:08:26.741Z,2.33
2022-12-20T10:10:57.710Z,2.20
2022-12-20T10:13:37.008Z,4.40
2022-12-20T10:16:35.286Z,3.22
2022-12-20T10:19:20.263Z,5.85
2022-12-20T10:22:06.788Z,1.90
2022-12-20T10:24:35.658Z,1.58
2022-12-20T10:27:18.731Z,3.05
2022-12-20T10:29:46.847Z,4.70
2022-12-20T10:32:19.441Z,1.63
2022-12-20T10:35:15.372Z,6.05
2022-12-20T10:38:09.591Z,2.33
2022-12-20T10:43:52.824Z,9.07
2022-12-20T10:46:21.095Z,4.78
2022-12-20T10:51:22.285Z,2.58
2022-12-20T10:54:01.630Z,3.63
2022-12-20T10:56:31.869Z,7.68
2022-12-20T10:59:03.361Z,3.75
2022-12-20T11:01:39.912Z,1.40
2022-12-20T11:04:23.037Z,1.55
2022-12-20T11:06:49.977Z,3.55
2022-12-20T11:09:32.202Z,5.38
2022-12-20T11:12:16.713Z,1.42
2022-12-20T11:14:50.204Z,2.22
2022-12-20T11:17:25.946Z,4.35
2022-12-20T11:20:12.037Z,2.95
2022-12-20T11:23:10.627Z,2.05
2022-12-20T11:25:50.862Z,3.25
2022-12-20T11:28:42.741Z,2.08
2022-12-20T11:31:38.004Z,1.85
2022-12-20T11:34:15.873Z,1.77
2022-12-20T11:37:09.227Z,3.25
2022-12-20T11:39:57.038Z,6.38
2022-12-20T11:42:55.085Z,2.70
2022-12-20T11:45:51.088Z,6.55
2022-12-20T11:48:41.122Z,4.20
2022-12-20T11:51:41.675Z,2.25
2022-12-20T11:54:18.528Z,1.83
2022-12-20T11:56:48.053Z,1.70
2022-12-20T11:59:17.900Z,2.50
2022-12-20T12:01:55.747Z,5.13
2022-12-20T12:04:28.643Z,2.65
2022-12-20T12:07:03.606Z,2.03
2022-12-20T12:09:40.179Z,3.30
2022-12-20T12:12:27.562Z,7.15
2022-12-20T12:15:11.201Z,2.60
2022-12-20T12:18:01.159Z,3.22
2022-12-20T12:21:09.968Z,3.70
2022-12-20T12:23:49.056Z,3.80
2022-12-20T12:26:26.874Z,1.63
2022-12-20T12:29:00.382Z,4.18
2022-12-20T12:31:51.341Z,4.00
2022-12-20T12:34:27.111Z,2.47
2022-12-20T12:37:18.472Z,2.92
2022-12-20T12:40:06.941Z,2.88
2022-12-20T12:43:11.599Z,2.97
2022-12-20T12:45:47.014Z,3.38
2022-12-20T12:48:30.664Z,5.10
2022-12-20T12:50:58.610Z,4.88
2022-12-20T12:53:38.435Z,4.65
2022-12-20T12:56:43.285Z,5.00
2022-12-20T12:59:22.878Z,3.35
2022-12-20T13:02:08.426Z,5.20
2022-12-20T13:05:15.911Z,5.72
2022-12-20T13:07:44.161Z,3.90
2022-12-20T13:10:24.830Z,5.15
2022-12-20T13:12:55.217Z,4.03
2022-12-20T13:15:22.624Z,6.78
2022-12-20T13:17:59.991Z,3.00
2022-12-20T13:20:27.742Z,5.75
2022-12-20T13:23:10.646Z,2.95
2022-12-20T13:25:48.910Z,3.58
2022-12-20T13:28:24.912Z,3.85
2022-12-20T13:31:01.228Z,3.97
2022-12-20T13:33:47.318Z,4.43
2022-12-20T13:36:17.532Z,4.00
2022-12-20T13:38:47.009Z,4.22
2022-12-20T13:41:37.756Z,3.10
2022-12-20T13:44:27.495Z,3.10
2022-12-20T13:47:20.082Z,3.75
2022-12-20T13:49:47.467Z,4.63
2022-12-20T13:52:21.245Z,3.60
2022-12-20T13:54:52.499Z,3.65
2022-12-20T13:57:26.133Z,2.22
2022-12-20T14:00:03.594Z,2.50
2022-12-20T14:02:41.605Z,3.45
2022-12-20T14:05:21.997Z,3.08
2022-12-20T14:07:57.172Z,2.47
2022-12-20T14:10:26.705Z,3.83
2022-12-20T14:12:58.353Z,2.40
2022-12-20T14:15:33.375Z,3.40
2022-12-20T14:18:21.955Z,2.53
2022-12-20T14:20:53.577Z,2.80
2022-12-20T14:23:24.712Z,2.65
2022-12-20T14:25:58.137Z,2.95
2022-12-20T14:28:40.827Z,3.67
2022-12-20T14:31:22.756Z,2.67
2022-12-20T14:33:50.591Z,1.92
2022-12-20T14:36:17.030Z,4.35
2022-12-20T14:38:49.496Z,3.22
2022-12-20T14:41:35.724Z,4.20
2022-12-20T14:44:08.454Z,4.32
2022-12-20T14:46:41.181Z,6.03
2022-12-20T14:49:49.812Z,3.67
2022-12-20T14:52:21.509Z,2.40
2022-12-20T14:55:09.395Z,3.75
2022-12-20T14:57:37.004Z,3.85
2022-12-20T15:00:19.561Z,10.38
2022-12-20T15:03:00.050Z,2.70
2022-12-20T15:05:38.461Z,4.28
2022-12-20T15:10:55.367Z,2.85
2022-12-20T15:13:49.879Z,3.13
2022-12-20T15:16:30.585Z,4.07
2022-12-20T15:19:02.481Z,4.65
2022-12-20T15:21:33.338Z,6.85
2022-12-20T15:24:02.295Z,6.80
2022-12-20T15:26:31.392Z,4.43
2022-12-20T15:28:59.519Z,4.88
2022-12-20T15:31:34.099Z,5.15
2022-12-20T15:34:06.115Z,4.32
2022-12-20T15:36:36.129Z,6.28
2022-12-20T15:39:12.776Z,3.22
2022-12-20T15:41:46.405Z,3.28
2022-12-20T15:44:16.216Z,2.90
2022-12-20T15:46:44.498Z,3.50
2022-12-20T15:49:20.268Z,3.55
2022-12-20T15:51:51.166Z,5.15
2022-12-20T15:54:34.158Z,4.95
2022-12-20T15:57:03.866Z,4.85
2022-12-20T15:59:59.752Z,3.45
2022-12-20T16:02:27.115Z,3.03
2022-12-20T16:04:55.644Z,3.47
2022-12-20T16:09:49.401Z,3.85
2022-12-20T16:12:29.570Z,3.55
2022-12-20T16:14:56.496Z,11.55
2022-12-20T16:17:25.806Z,6.10
2022-12-20T16:19:52.595Z,4.25
2022-12-20T16:22:23.025Z,3.95
2022-12-20T16:24:52.095Z,4.50
2022-12-20T16:27:19.578Z,10.07
2022-12-20T16:29:46.553Z,4.60
2022-12-20T16:32:18.915Z,5.18
2022-12-20T16:34:48.180Z,5.05
2022-12-20T16:37:15.107Z,4.22
2022-12-20T16:39:43.592Z,4.70
2022-12-20T16:42:18.450Z,3.90
2022-12-20T16:44:46.412Z,5.60
2022-12-20T16:47:14.725Z,4.32
2022-12-20T16:49:49.685Z,3.80
2022-12-20T16:52:19.132Z,6.45
2022-12-20T16:54:46.752Z,3.90
2022-12-20T16:57:13.825Z,4.05
2022-12-20T16:59:40.855Z,4.20
2022-12-20T17:02:30.627Z,4.80
2022-12-20T17:04:57.843Z,4.25
2022-12-20T17:07:25.126Z,7.40
2022-12-20T17:09:52.341Z,4.60
2022-12-20T17:12:21.670Z,3.47
2022-12-20T17:14:49.173Z,9.70
2022-12-20T17:17:16.433Z,4.80
2022-12-20T17:19:43.299Z,3.95
2022-12-20T17:22:23.490Z,3.97
2022-12-20T17:24:50.453Z,4.30
2022-12-20T17:27:18.114Z,4.85
2022-12-20T17:29:47.760Z,4.25
2022-12-20T17:32:20.009Z,4.40
2022-12-20T17:34:49.852Z,4.40
2022-12-20T17:37:19.668Z,4.65
2022-12-20T17:39:46.352Z,7.88
2022-12-20T17:42:13.780Z,4.57
2022-12-20T17:44:40.610Z,4.83
2022-12-20T17:47:08.123Z,4.50
2022-12-20T17:49:37.407Z,4.82
2022-12-20T17:52:07.674Z,5.07
2022-12-20T17:54:40.092Z,4.80
2022-12-20T17:57:16.377Z,7.55
2022-12-20T17:59:43.669Z,4.82
2022-12-20T18:02:23.109Z,4.90
2022-12-20T18:04:51.124Z,5.07
2022-12-20T18:07:18.265Z,5.72
2022-12-20T18:09:47.716Z,5.28
2022-12-20T18:12:19.996Z,5.05
2022-12-20T18:14:49.243Z,6.00
2022-12-20T18:17:16.630Z,5.55
2022-12-20T18:19:45.673Z,6.33
2022-12-20T18:22:14.531Z,6.25
2022-12-20T18:24:41.393Z,6.18
2022-12-20T18:27:08.064Z,6.22
2022-12-20T18:29:39.767Z,5.95
2022-12-20T18:32:06.431Z,7.72
2022-12-20T18:34:33.579Z,6.07
2022-12-20T18:37:06.977Z,6.90
2022-12-20T18:39:34.923Z,13.15
2022-12-20T18:42:02.624Z,7.25
2022-12-20T18:44:29.202Z,7.72
2022-12-20T18:46:56.148Z,7.60
2022-12-20T18:49:23.194Z,8.07
2022-12-20T18:51:53.065Z,8.40
2022-12-20T18:54:25.807Z,7.80
2022-12-20T18:56:52.637Z,8.88
2022-12-20T18:59:21.268Z,9.57
2022-12-20T19:01:48.597Z,9.13
2022-12-20T19:04:22.440Z,9.30
2022-12-20T19:06:51.754Z,8.95
2022-12-20T19:09:18.393Z,10.83
2022-12-20T19:11:51.585Z,9.43
2022-12-20T19:14:28.203Z,9.30
2022-12-20T19:16:59.375Z,9.30
2022-12-20T19:19:36.559Z,13.00
2022-12-20T19:22:04.524Z,9.65
2022-12-20T19:24:32.818Z,9.75
2022-12-20T19:26:59.410Z,10.10
2022-12-20T19:29:26.391Z,13.35
2022-12-20T19:31:53.390Z,9.48
2022-12-20T19:34:20.753Z,10.68
2022-12-20T19:36:48.670Z,11.50
2022-12-20T19:39:20.877Z,11.07
2022-12-20T19:42:13.925Z,15.38
2022-12-20T19:44:35.551Z,14.27
2022-12-20T19:47:05.829Z,11.18
2022-12-20T19:49:35.656Z,13.13
2022-12-20T19:52:05.893Z,13.43
2022-12-20T19:54:33.149Z,11.35
2022-12-20T19:57:00.037Z,14.45
2022-12-20T19:59:26.851Z,13.85
2022-12-20T20:01:53.819Z,12.07
2022-12-20T20:04:20.424Z,13.05
2022-12-20T20:06:48.455Z,12.57
2022-12-20T20:09:16.078Z,13.90
2022-12-20T20:11:43.186Z,13.23
2022-12-20T20:14:10.586Z,13.07
2022-12-20T20:16:37.969Z,15.85
2022-12-20T20:19:05.822Z,13.20
2022-12-20T20:21:36.494Z,16.92
2022-12-20T20:24:05.633Z,13.77
2022-12-20T20:26:34.891Z,15.48
2022-12-20T20:29:02.321Z,17.20
2022-12-20T20:31:29.728Z,14.93
2022-12-20T20:33:58.003Z,17.60
2022-12-20T20:36:25.258Z,15.45
2022-12-20T20:38:52.739Z,19.73
2022-12-20T20:41:19.664Z,18.45
2022-12-20T20:43:46.285Z,21.02
2022-12-20T20:46:14.847Z,17.58
2022-12-20T20:48:43.055Z,21.30
2022-12-20T20:53:37.406Z,24.58
2022-12-20T20:56:06.338Z,20.50
2022-12-20T20:58:35.987Z,22.95
2022-12-20T21:01:05.484Z,23.33
2022-12-20T21:03:32.818Z,22.30
2022-12-20T21:08:47.114Z,23.00
2022-12-20T21:11:18.137Z,24.03
2022-12-20T21:13:46.923Z,21.77
2022-12-20T21:16:20.962Z,28.15
2022-12-20T21:18:55.672Z,22.05
2022-12-20T21:21:23.918Z,28.15
2022-12-20T21:26:21.288Z,25.70
2022-12-20T21:28:48.390Z,32.20
2022-12-20T21:31:18.216Z,29.00
2022-12-20T21:33:49.018Z,30.60
2022-12-20T21:36:21.002Z,27.17
2022-12-20T21:38:50.726Z,28.83
2022-12-20T21:41:18.588Z,31.15
2022-12-20T21:43:45.110Z,31.35
2022-12-20T21:46:12.542Z,29.95
2022-12-20T21:48:40.332Z,34.45
2022-12-20T21:51:16.298Z,26.95
2022-12-20T21:53:48.184Z,28.20
2022-12-20T21:56:15.794Z,26.42
2022-12-20T21:58:43.964Z,27.60
2022-12-20T22:01:14.398Z,27.77
2022-12-20T22:03:42.294Z,25.80
2022-12-20T22:06:10.805Z,27.90
2022-12-20T22:08:45.233Z,23.83
2022-12-20T22:11:16.242Z,28.60
2022-12-20T22:13:43.458Z,26.17
2022-12-20T22:16:11.852Z,33.50
2022-12-20T22:18:39.545Z,23.40
2022-12-20T22:21:09.471Z,26.33
2022-12-20T22:23:37.603Z,27.48
2022-12-20T22:26:11.511Z,24.33
2022-12-20T22:28:39.771Z,28.85
2022-12-20T22:33:40.908Z,30.38
2022-12-20T22:36:09.279Z,24.90
2022-12-20T22:38:35.873Z,28.35
2022-12-20T22:41:29.224Z,28.27
2022-12-20T22:43:59.692Z,31.05
2022-12-20T22:46:29.623Z,28.55
2022-12-20T22:48:57.584Z,28.17
2022-12-20T22:51:26.173Z,30.58
2022-12-20T22:53:55.816Z,25.30
2022-12-20T22:56:23.113Z,24.50
2022-12-20T22:58:51.361Z,30.20
2022-12-20T23:03:48.300Z,33.15
2022-12-20T23:06:19.302Z,27.80
2022-12-20T23:08:46.144Z,25.65
2022-12-20T23:11:40.907Z,27.65
2022-12-20T23:14:31.029Z,25.92
2022-12-20T23:16:58.334Z,24.98
2022-12-20T23:19:26.432Z,25.20
2022-12-20T23:22:12.645Z,25.90
2022-12-20T23:24:39.474Z,30.98
2022-12-20T23:27:06.728Z,27.92
2022-12-20T23:29:33.961Z,26.85
2022-12-20T23:32:01.603Z,27.02
2022-12-20T23:34:28.249Z,27.30
2022-12-20T23:36:54.855Z,30.30
2022-12-20T23:39:23.988Z,26.58
2022-12-20T23:41:51.001Z,27.17
2022-12-20T23:44:17.898Z,24.13
2022-12-20T23:46:45.293Z,31.63
2022-12-20T23:49:13.408Z,26.37
2022-12-20T23:51:41.826Z,28.00
2022-12-20T23:54:12.569Z,27.85
2022-12-20T23:56:40.967Z,29.98
2022-12-20T23:59:07.853Z,26.85
